Map

Track Data

SID SEASON NUMBER BASIN SUBBASIN NAME ISO_TIME NATURE LAT LON WMO_WIND WMO_PRES WMO_AGENCY TRACK_TYPE DIST2LAND LANDFALL IFLAG USA_AGENCY USA_ATCF_ID USA_LAT USA_LON USA_RECORD USA_STATUS USA_WIND USA_PRES USA_SSHS USA_R34_NE USA_R34_SE USA_R34_SW USA_R34_NW USA_R50_NE USA_R50_SE USA_R50_SW USA_R50_NW USA_R64_NE USA_R64_SE USA_R64_SW USA_R64_NW USA_POCI USA_ROCI USA_RMW USA_EYE TOKYO_LAT TOKYO_LON TOKYO_GRADE TOKYO_WIND TOKYO_PRES TOKYO_R50_DIR TOKYO_R50_LONG TOKYO_R50_SHORT TOKYO_R30_DIR TOKYO_R30_LONG TOKYO_R30_SHORT TOKYO_LAND CMA_LAT CMA_LON CMA_CAT CMA_WIND CMA_PRES HKO_LAT HKO_LON HKO_CAT HKO_WIND HKO_PRES NEWDELHI_LAT NEWDELHI_LON NEWDELHI_GRADE NEWDELHI_WIND NEWDELHI_PRES NEWDELHI_CI NEWDELHI_DP NEWDELHI_POCI REUNION_LAT REUNION_LON REUNION_TYPE REUNION_WIND REUNION_PRES REUNION_TNUM REUNION_CI REUNION_RMW REUNION_R34_NE REUNION_R34_SE REUNION_R34_SW REUNION_R34_NW REUNION_R50_NE REUNION_R50_SE REUNION_R50_SW REUNION_R50_NW REUNION_R64_NE REUNION_R64_SE REUNION_R64_SW REUNION_R64_NW BOM_LAT BOM_LON BOM_TYPE BOM_WIND BOM_PRES BOM_TNUM BOM_CI BOM_RMW BOM_R34_NE BOM_R34_SE BOM_R34_SW BOM_R34_NW BOM_R50_NE BOM_R50_SE BOM_R50_SW BOM_R50_NW BOM_R64_NE BOM_R64_SE BOM_R64_SW BOM_R64_NW BOM_ROCI BOM_POCI BOM_EYE BOM_POS_METHOD BOM_PRES_METHOD NADI_LAT NADI_LON NADI_CAT NADI_WIND NADI_PRES WELLINGTON_LAT WELLINGTON_LON WELLINGTON_WIND WELLINGTON_PRES DS824_LAT DS824_LON DS824_STAGE DS824_WIND DS824_PRES TD9636_LAT TD9636_LON TD9636_STAGE TD9636_WIND TD9636_PRES TD9635_LAT TD9635_LON TD9635_WIND TD9635_PRES TD9635_ROCI NEUMANN_LAT NEUMANN_LON NEUMANN_CLASS NEUMANN_WIND NEUMANN_PRES MLC_LAT MLC_LON MLC_CLASS MLC_WIND MLC_PRES USA_GUST BOM_GUST BOM_GUST_PER REUNION_GUST REUNION_GUST_PER USA_SEAHGT USA_SEARAD_NE USA_SEARAD_SE USA_SEARAD_SW USA_SEARAD_NW STORM_SPEED STORM_DIR
1929274N15144 1929 63 WP MM NOT_NAMED 1929-10-01 10:00:00 NR 15.4000 143.600 main 1987 1976 __________O___ -1 15.4000 143.600 7 3 280
1929274N15144 1929 63 WP MM NOT_NAMED 1929-10-01 12:00:00 NR 15.4165 143.500 main 1976 1955 __________P___ -1 15.4165 143.500 7 3 280
1929274N15144 1929 63 WP MM NOT_NAMED 1929-10-01 15:00:00 NR 15.4476 143.318 main 1955 1935 __________P___ -1 15.4476 143.318 7 4 280
1929274N15144 1929 63 WP MM NOT_NAMED 1929-10-01 18:00:00 NR 15.4950 143.057 main 1935 1895 __________P___ -1 15.4950 143.057 7 6 281
1929274N15144 1929 63 WP MM NOT_NAMED 1929-10-01 21:00:00 NR 15.5682 142.667 main 1895 1874 __________P___ -1 15.5682 142.667 7 8 281
1929274N15144 1929 63 WP MM NOT_NAMED 1929-10-01 22:00:00 NR 15.6000 142.500 main 1874 1833 __________O___ -1 15.6000 142.500 7 11 281
1929274N15144 1929 63 WP MM NOT_NAMED 1929-10-02 00:00:00 NR 15.6764 142.106 main 1833 1762 __________P___ -1 15.6764 142.106 7 13 282
1929274N15144 1929 63 WP MM NOT_NAMED 1929-10-02 03:00:00 NR 15.8278 141.401 main 1762 1683 __________P___ -1 15.8278 141.401 7 15 284
1929274N15144 1929 63 WP MM NOT_NAMED 1929-10-02 06:00:00 NR 16.0313 140.624 main 1683 1608 __________P___ -1 16.0313 140.624 7 16 287
1929274N15144 1929 63 WP MM NOT_NAMED 1929-10-02 09:00:00 NR 16.2962 139.847 main 1608 1590 __________P___ -1 16.2962 139.847 7 16 291
1929274N15144 1929 63 WP MM NOT_NAMED 1929-10-02 10:00:00 NR 16.4000 139.600 main 1590 1545 __________O___ -1 16.4000 139.600 7 15 294
1929274N15144 1929 63 WP MM NOT_NAMED 1929-10-02 12:00:00 NR 16.6110 139.120 main 1545 1488 __________P___ -1 16.6110 139.120 7 15 298
1929274N15144 1929 63 WP MM NOT_NAMED 1929-10-02 15:00:00 NR 16.9841 138.429 main 1488 1444 __________P___ -1 16.9841 138.429 7 15 303
1929274N15144 1929 63 WP MM NOT_NAMED 1929-10-02 18:00:00 NR 17.4218 137.816 main 1444 1418 __________P___ -1 17.4218 137.816 7 14 312
1929274N15144 1929 63 WP MM NOT_NAMED 1929-10-02 21:00:00 NR 17.9206 137.327 main 1418 1413 __________P___ -1 17.9206 137.327 7 14 319
1929274N15144 1929 63 WP MM NOT_NAMED 1929-10-02 22:00:00 NR 18.1000 137.200 main 1418 1414 __________O___ -1 18.1000 137.200 7 13 330
1929274N15144 1929 63 WP MM NOT_NAMED 1929-10-03 00:00:00 NR 18.4701 136.992 main 1420 1416 __________P___ -1 18.4701 136.992 7 13 339
1929274N15144 1929 63 WP MM NOT_NAMED 1929-10-03 03:00:00 NR 19.0765 136.807 main 1434 1398 __________P___ -1 19.0765 136.807 7 13 349
1929274N15144 1929 63 WP MM NOT_NAMED 1929-10-03 06:00:00 NR 19.7222 136.745 main 1398 1331 __________P___ -1 19.7222 136.745 7 13 358
1929274N15144 1929 63 WP MM NOT_NAMED 1929-10-03 09:00:00 NR 20.3816 136.775 main 1331 1311 __________P___ -1 20.3816 136.775 7 13 3
1929274N15144 1929 63 WP MM NOT_NAMED 1929-10-03 10:00:00 NR 20.6000 136.800 main 1311 1271 __________O___ -1 20.6000 136.800 7 13 4
1929274N15144 1929 63 WP MM NOT_NAMED 1929-10-03 12:00:00 NR 21.0060 136.817 main 1271 1217 __________P___ -1 21.0060 136.817 7 12 6
1929274N15144 1929 63 WP MM NOT_NAMED 1929-10-03 15:00:00 NR 21.6147 136.905 main 1217 1164 __________P___ -1 21.6147 136.905 7 13 11
1929274N15144 1929 63 WP MM NOT_NAMED 1929-10-03 18:00:00 NR 22.2346 137.068 main 1169 1113 __________P___ -1 22.2346 137.068 7 13 16
1929274N15144 1929 63 WP MM NOT_NAMED 1929-10-03 21:00:00 NR 22.8781 137.305 main 1113 1099 __________P___ -1 22.8781 137.305 7 14 19
1929274N15144 1929 63 WP MM NOT_NAMED 1929-10-03 22:00:00 NR 23.1000 137.400 main 1099 1063 __________O___ -1 23.1000 137.400 7 15 21
1929274N15144 1929 63 WP MM NOT_NAMED 1929-10-04 00:00:00 NR 23.5709 137.594 main 1063 1017 __________P___ -1 23.5709 137.594 7 16 23
1929274N15144 1929 63 WP MM NOT_NAMED 1929-10-04 03:00:00 NR 24.3027 137.947 main 1017 968 __________P___ -1 24.3027 137.947 7 16 26
1929274N15144 1929 63 WP MM NOT_NAMED 1929-10-04 06:00:00 NR 25.0429 138.365 main 970 896 __________P___ -1 25.0429 138.365 7 17 29
1929274N15144 1929 63 WP MM NOT_NAMED 1929-10-04 09:00:00 NR 25.7667 138.835 main 896 881 __________P___ -1 25.7667 138.835 7 17 31
1929274N15144 1929 63 WP MM NOT_NAMED 1929-10-04 10:00:00 NR 26.0000 139.000 main 881 840 __________O___ -1 26.0000 139.000 7 17 34
1929274N15144 1929 63 WP MM NOT_NAMED 1929-10-04 12:00:00 NR 26.4512 139.342 main 840 800 __________P___ -1 26.4512 139.342 7 16 36
1929274N15144 1929 63 WP MM NOT_NAMED 1929-10-04 15:00:00 NR 27.0945 139.877 main 805 773 __________P___ -1 27.0945 139.877 7 16 38
1929274N15144 1929 63 WP MM NOT_NAMED 1929-10-04 18:00:00 NR 27.7081 140.434 main 773 732 __________P___ -1 27.7081 140.434 7 16 40
1929274N15144 1929 63 WP MM NOT_NAMED 1929-10-04 21:00:00 NR 28.3035 141.007 main 732 717 __________P___ -1 28.3035 141.007 7 16 40
1929274N15144 1929 63 WP MM NOT_NAMED 1929-10-04 22:00:00 NR 28.5000 141.200 main 717 __________O___ -1 28.5000 141.200 7 16 41

Digital Typhoon Data and Search

About IBTrACS Database

This database is a web-friendly format of International Best Track Archive for Climate Stewardship (IBTrACS), a global best track data archive curated by NOAA dating back to 1842.

Updated: 2021-11-26